Township of Washington, New Jersey
Current Conditions -  °F | °C
As of 3:51 AM on Sunday 23 Nov 2014 (Local Time) from KTEB Reporting Station
Overcast Overcast  
Wind Chill: 39°   Ceiling: 11000
Heat Index: 42°   Visibility: 10mi
Dew Point: 22°   Wind: 5mph
Humidity: 45%   Direction: 240°WSW
Pressure: 30.17"   Gusts: NA
Location:  41.0089°N, 74.0218°W
Report Text: KTEB 230851Z 24004KT 10SM OVC110 06/M06 A3017 RMK AO2 SLP218 T00561056 55001
Loading
Personal Weather Stations






























Interactive Weather Map New forecast layout! Learn more

10-Day Weather Forecast

Advertisements
Track Severe Weather on mobile